createdAt,value
2022-12-22T00:02:32.540Z,9.82
2022-12-22T00:05:15.113Z,10.95
2022-12-22T00:07:57.480Z,10.27
2022-12-22T00:10:39.970Z,9.20
2022-12-22T00:13:28.848Z,9.85
2022-12-22T00:16:11.328Z,9.80
2022-12-22T00:18:53.719Z,9.07
2022-12-22T00:21:36.102Z,7.68
2022-12-22T00:24:18.873Z,8.55
2022-12-22T00:27:01.892Z,7.90
2022-12-22T00:29:54.979Z,7.00
2022-12-22T00:32:38.537Z,7.80
2022-12-22T00:35:26.425Z,8.02
2022-12-22T00:38:08.789Z,9.38
2022-12-22T00:40:51.154Z,7.93
2022-12-22T00:43:33.512Z,8.85
2022-12-22T00:46:19.888Z,8.65
2022-12-22T00:49:02.819Z,9.07
2022-12-22T00:51:46.219Z,10.00
2022-12-22T00:54:30.890Z,7.80
2022-12-22T00:57:15.225Z,8.30
2022-12-22T00:59:57.717Z,10.70
2022-12-22T01:02:42.786Z,9.23
2022-12-22T01:08:07.570Z,9.88
2022-12-22T01:10:50.095Z,11.43
2022-12-22T01:13:33.112Z,10.70
2022-12-22T01:16:16.254Z,10.55
2022-12-22T01:19:01.420Z,10.88
2022-12-22T01:24:28.903Z,10.77
2022-12-22T01:27:11.292Z,10.82
2022-12-22T01:29:53.656Z,10.80
2022-12-22T01:32:36.045Z,11.48
2022-12-22T01:35:23.822Z,10.50
2022-12-22T01:38:06.250Z,10.85
2022-12-22T01:40:48.636Z,11.57
2022-12-22T01:43:37.146Z,11.60
2022-12-22T01:46:39.100Z,11.45
2022-12-22T01:49:26.309Z,10.75
2022-12-22T01:52:12.070Z,11.25
2022-12-22T01:54:54.629Z,11.27
2022-12-22T01:57:36.990Z,9.70
2022-12-22T02:00:21.636Z,11.23
2022-12-22T02:03:04.050Z,10.80
2022-12-22T02:05:51.911Z,11.02
2022-12-22T02:08:42.218Z,11.45
2022-12-22T02:11:40.337Z,11.35
2022-12-22T02:14:38.144Z,11.55
2022-12-22T02:17:29.533Z,11.48
2022-12-22T02:20:37.977Z,11.18
2022-12-22T02:23:28.799Z,10.55
2022-12-22T02:26:33.111Z,10.75
2022-12-22T02:29:16.742Z,10.93
2022-12-22T02:31:59.164Z,10.75
2022-12-22T02:34:41.612Z,10.25
2022-12-22T02:37:34.110Z,11.52
2022-12-22T02:40:23.413Z,10.50
2022-12-22T02:43:20.833Z,9.90
2022-12-22T02:46:11.137Z,10.23
2022-12-22T02:49:01.736Z,10.98
2022-12-22T02:51:46.739Z,10.23
2022-12-22T02:54:31.738Z,10.43
2022-12-22T02:57:14.173Z,10.70
2022-12-22T02:59:59.120Z,10.13
2022-12-22T03:02:41.690Z,11.15
2022-12-22T03:05:24.292Z,9.70
2022-12-22T03:08:08.664Z,10.25
2022-12-22T03:10:51.442Z,9.80
2022-12-22T03:13:33.843Z,10.95
2022-12-22T03:16:19.139Z,9.90
2022-12-22T03:19:01.565Z,8.95
2022-12-22T03:21:44.166Z,10.32
2022-12-22T03:24:26.557Z,9.18
2022-12-22T03:26:57.507Z,8.95
2022-12-22T03:29:27.418Z,8.23
2022-12-22T03:31:59.942Z,9.32
2022-12-22T03:34:29.834Z,9.25
2022-12-22T03:36:59.709Z,10.38
2022-12-22T03:39:29.618Z,8.98
2022-12-22T03:42:12.016Z,9.70
2022-12-22T03:44:54.360Z,11.13
2022-12-22T03:47:26.847Z,11.05
2022-12-22T03:49:56.689Z,10.90
2022-12-22T03:52:26.607Z,9.50
2022-12-22T03:54:56.433Z,10.57
2022-12-22T03:57:26.304Z,10.48
2022-12-22T03:59:56.209Z,11.10
2022-12-22T04:02:28.750Z,10.93
2022-12-22T04:04:58.670Z,10.68
2022-12-22T04:07:28.549Z,10.68
2022-12-22T04:10:10.958Z,10.32
2022-12-22T04:12:53.340Z,9.85
2022-12-22T04:15:23.324Z,10.00
2022-12-22T04:17:56.025Z,10.18
2022-12-22T04:20:28.589Z,10.18
2022-12-22T04:22:59.471Z,10.40
2022-12-22T04:25:30.462Z,11.15
2022-12-22T04:28:00.358Z,10.52
2022-12-22T04:30:30.241Z,10.07
2022-12-22T04:33:02.695Z,10.98
2022-12-22T04:35:32.529Z,10.85
2022-12-22T04:38:02.433Z,11.05
2022-12-22T04:40:32.295Z,11.82
2022-12-22T04:43:02.139Z,12.00
2022-12-22T04:45:32.218Z,10.70
2022-12-22T04:48:04.984Z,11.45
2022-12-22T04:50:34.843Z,12.52
2022-12-22T04:53:04.769Z,12.52
2022-12-22T04:55:34.607Z,13.60
2022-12-22T04:58:04.482Z,12.02
2022-12-22T05:00:34.360Z,14.18
2022-12-22T05:03:06.964Z,14.65
2022-12-22T05:05:36.986Z,13.55
2022-12-22T05:08:07.677Z,14.77
2022-12-22T05:10:37.629Z,17.15
2022-12-22T05:13:07.591Z,16.45
2022-12-22T05:15:39.311Z,15.43
2022-12-22T05:18:13.311Z,14.43
2022-12-22T05:20:43.217Z,14.25
2022-12-22T05:23:13.076Z,13.73
2022-12-22T05:25:42.928Z,34.45
2022-12-22T05:28:12.814Z,18.27
2022-12-22T05:30:43.897Z,18.05
2022-12-22T05:33:16.367Z,16.17
2022-12-22T05:35:46.227Z,13.98
2022-12-22T05:38:16.063Z,13.25
2022-12-22T05:40:45.930Z,13.90
2022-12-22T05:43:16.862Z,14.48
2022-12-22T05:45:47.926Z,14.73
2022-12-22T05:48:27.409Z,14.00
2022-12-22T05:50:59.468Z,13.43
2022-12-22T05:53:29.391Z,13.02
2022-12-22T05:55:59.267Z,12.57
2022-12-22T05:58:29.264Z,12.55
2022-12-22T06:01:00.775Z,13.77
2022-12-22T06:03:34.064Z,12.70
2022-12-22T06:06:04.011Z,14.15
2022-12-22T06:08:34.000Z,13.15
2022-12-22T06:11:03.868Z,13.90
2022-12-22T06:13:34.582Z,11.55
2022-12-22T06:16:04.479Z,12.50
2022-12-22T06:18:36.971Z,14.35
2022-12-22T06:21:07.261Z,13.07
2022-12-22T06:23:37.253Z,11.90
2022-12-22T06:26:07.411Z,11.88
2022-12-22T06:28:37.259Z,12.65
2022-12-22T06:31:07.550Z,12.57
2022-12-22T06:33:40.162Z,12.25
2022-12-22T06:36:11.793Z,12.27
2022-12-22T06:38:41.639Z,12.32
2022-12-22T06:41:11.712Z,11.65
2022-12-22T06:43:39.024Z,12.50
2022-12-22T06:46:08.941Z,12.05
2022-12-22T06:48:41.377Z,12.77
2022-12-22T06:51:11.253Z,11.32
2022-12-22T06:53:41.084Z,12.75
2022-12-22T06:56:11.378Z,13.00
2022-12-22T06:58:41.212Z,12.02
2022-12-22T07:01:11.091Z,12.75
2022-12-22T07:03:43.553Z,12.45
2022-12-22T07:06:13.453Z,13.23
2022-12-22T07:08:43.320Z,12.55
2022-12-22T07:11:13.527Z,13.32
2022-12-22T07:13:43.964Z,14.15
2022-12-22T07:16:14.686Z,13.20
2022-12-22T07:18:47.424Z,13.07
2022-12-22T07:21:18.003Z,13.23
2022-12-22T07:23:47.869Z,13.10
2022-12-22T07:26:18.407Z,13.00
2022-12-22T07:28:48.292Z,13.40
2022-12-22T07:31:20.573Z,12.85
2022-12-22T07:33:53.027Z,11.70
2022-12-22T07:36:23.991Z,11.13
2022-12-22T07:38:54.939Z,9.93
2022-12-22T07:41:37.450Z,10.85
2022-12-22T07:44:08.425Z,12.30
2022-12-22T07:46:41.313Z,11.20
2022-12-22T07:49:27.190Z,9.13
2022-12-22T07:52:00.232Z,11.05
2022-12-22T07:54:35.209Z,11.32
2022-12-22T07:57:08.000Z,11.70
2022-12-22T07:59:37.856Z,11.57
2022-12-22T08:02:07.836Z,11.93
2022-12-22T08:04:40.424Z,10.65
2022-12-22T08:07:10.314Z,11.85
2022-12-22T08:09:40.149Z,11.40
2022-12-22T08:12:10.479Z,11.05
2022-12-22T08:14:40.360Z,10.93
2022-12-22T08:17:10.203Z,11.13
2022-12-22T08:19:42.923Z,11.55
2022-12-22T08:22:12.909Z,11.90
2022-12-22T08:24:42.766Z,13.73
2022-12-22T08:27:24.011Z,11.15
2022-12-22T08:30:01.223Z,11.75
2022-12-22T08:32:31.355Z,11.30
2022-12-22T08:35:03.966Z,11.05
2022-12-22T08:37:41.277Z,11.13
2022-12-22T08:40:17.352Z,10.60
2022-12-22T08:42:47.806Z,10.80
2022-12-22T08:45:17.725Z,10.85
2022-12-22T08:47:47.579Z,10.65
2022-12-22T08:50:20.237Z,10.48
2022-12-22T08:52:50.102Z,9.50
2022-12-22T08:55:20.312Z,12.10
2022-12-22T08:57:56.170Z,11.98
2022-12-22T09:00:27.341Z,9.93
2022-12-22T09:02:57.376Z,10.32
2022-12-22T09:05:29.920Z,10.00
2022-12-22T09:08:01.133Z,11.18
2022-12-22T09:10:30.999Z,10.60
2022-12-22T09:13:01.821Z,9.90
2022-12-22T09:15:31.730Z,8.48
2022-12-22T09:18:01.597Z,8.93
2022-12-22T09:20:34.033Z,9.05
2022-12-22T09:23:04.284Z,10.20
2022-12-22T09:25:34.166Z,9.60
2022-12-22T09:28:04.074Z,9.35
2022-12-22T09:30:33.936Z,10.63
2022-12-22T09:33:03.839Z,10.25
2022-12-22T09:35:36.321Z,7.97
2022-12-22T09:38:06.181Z,8.32
2022-12-22T09:40:36.556Z,9.88
2022-12-22T09:43:07.028Z,8.68
2022-12-22T09:45:38.719Z,8.20
2022-12-22T09:48:13.324Z,9.85
2022-12-22T09:50:45.806Z,7.88
2022-12-22T09:53:23.269Z,8.55
2022-12-22T09:55:54.484Z,9.65
2022-12-22T09:58:30.000Z,9.70
2022-12-22T10:01:12.859Z,7.68
2022-12-22T10:03:53.847Z,9.15
2022-12-22T10:06:38.513Z,9.40
2022-12-22T10:09:48.082Z,9.65
2022-12-22T10:12:17.264Z,8.98
2022-12-22T10:14:50.175Z,9.45
2022-12-22T10:17:28.298Z,8.18
2022-12-22T10:20:25.490Z,8.68
2022-12-22T10:23:01.988Z,8.75
2022-12-22T10:26:08.736Z,9.15
2022-12-22T10:28:30.063Z,8.57
2022-12-22T10:31:20.287Z,8.93
2022-12-22T10:33:52.851Z,9.80
2022-12-22T10:36:26.949Z,8.98
2022-12-22T10:39:06.727Z,9.30
2022-12-22T10:41:40.856Z,9.95
2022-12-22T10:44:17.473Z,8.98
2022-12-22T10:46:50.096Z,8.05
2022-12-22T10:49:24.490Z,9.38
2022-12-22T10:51:57.814Z,9.52
2022-12-22T10:54:34.132Z,10.25
2022-12-22T10:57:08.196Z,9.85
2022-12-22T10:59:51.771Z,8.38
2022-12-22T11:02:37.957Z,8.10
2022-12-22T11:05:11.736Z,10.00
2022-12-22T11:07:44.841Z,9.57
2022-12-22T11:10:30.291Z,8.32
2022-12-22T11:13:51.580Z,9.18
2022-12-22T11:16:30.464Z,9.80
2022-12-22T11:19:15.983Z,8.63
2022-12-22T11:21:53.683Z,8.15
2022-12-22T11:24:37.105Z,8.00
2022-12-22T11:27:27.877Z,7.75
2022-12-22T11:30:15.119Z,9.45
2022-12-22T11:33:01.693Z,8.10
2022-12-22T11:35:50.414Z,8.88
2022-12-22T11:38:33.079Z,9.75
2022-12-22T11:41:10.924Z,9.38
2022-12-22T11:43:59.632Z,10.98
2022-12-22T11:46:36.040Z,10.18
2022-12-22T11:49:36.037Z,8.73
2022-12-22T11:52:23.721Z,10.82
2022-12-22T11:55:16.774Z,9.43
2022-12-22T11:58:01.330Z,8.85
2022-12-22T12:01:12.147Z,7.82
2022-12-22T12:03:55.916Z,9.27
2022-12-22T12:07:02.414Z,9.07
2022-12-22T12:09:48.228Z,9.57
2022-12-22T12:12:26.142Z,9.00
2022-12-22T12:15:06.324Z,9.02
2022-12-22T12:17:55.806Z,11.27
2022-12-22T12:20:47.111Z,11.88
2022-12-22T12:23:39.784Z,12.00
2022-12-22T12:26:20.094Z,12.75
2022-12-22T12:29:09.600Z,13.00
2022-12-22T12:31:45.660Z,11.80
2022-12-22T12:34:20.073Z,11.25
2022-12-22T12:36:56.266Z,11.38
2022-12-22T12:39:34.394Z,12.32
2022-12-22T12:42:18.090Z,12.68
2022-12-22T12:44:52.252Z,9.55
2022-12-22T12:47:29.424Z,10.38
2022-12-22T12:50:34.353Z,10.60
2022-12-22T12:53:13.600Z,10.95
2022-12-22T12:56:02.010Z,11.05
2022-12-22T12:58:54.864Z,10.75
2022-12-22T13:01:58.795Z,8.85
2022-12-22T13:05:14.895Z,9.02
2022-12-22T13:08:20.669Z,9.15
2022-12-22T13:12:10.635Z,8.73
2022-12-22T13:15:01.349Z,10.13
2022-12-22T13:17:44.607Z,11.20
2022-12-22T13:20:22.646Z,10.35
2022-12-22T13:22:56.588Z,10.60
2022-12-22T13:25:31.811Z,9.97
2022-12-22T13:28:01.812Z,9.68
2022-12-22T13:30:33.481Z,11.38
2022-12-22T13:33:04.479Z,10.77
2022-12-22T13:35:47.185Z,10.70
2022-12-22T13:38:34.257Z,10.57
2022-12-22T13:41:08.151Z,9.23
2022-12-22T13:43:38.777Z,9.83
2022-12-22T13:46:11.984Z,11.40
2022-12-22T13:48:45.989Z,10.10
2022-12-22T13:51:25.516Z,9.75
2022-12-22T13:54:14.675Z,25.38
2022-12-22T13:56:48.797Z,17.83
2022-12-22T13:59:30.386Z,14.05
2022-12-22T14:02:03.122Z,10.15
2022-12-22T14:04:33.728Z,11.38
2022-12-22T14:07:17.292Z,12.73
2022-12-22T14:09:48.817Z,12.05
2022-12-22T14:12:22.185Z,11.82
2022-12-22T14:14:54.684Z,9.73
2022-12-22T14:17:27.258Z,9.65
2022-12-22T14:20:00.228Z,9.60
2022-12-22T14:22:38.738Z,10.15
2022-12-22T14:25:17.001Z,9.98
2022-12-22T14:27:51.128Z,10.45
2022-12-22T14:30:24.100Z,11.98
2022-12-22T14:32:58.381Z,10.65
2022-12-22T14:35:34.248Z,11.60
2022-12-22T14:38:41.847Z,11.20
2022-12-22T14:41:33.922Z,11.55
2022-12-22T14:44:05.612Z,9.60
2022-12-22T14:46:39.163Z,10.68
2022-12-22T14:49:16.511Z,11.55
2022-12-22T14:52:00.818Z,8.85
2022-12-22T14:54:33.864Z,10.70
2022-12-22T14:57:16.119Z,9.63
2022-12-22T15:00:03.721Z,9.90
2022-12-22T15:02:39.481Z,11.43
2022-12-22T15:05:26.655Z,10.25
2022-12-22T15:08:08.397Z,11.23
2022-12-22T15:10:44.923Z,19.75
2022-12-22T15:13:21.328Z,11.32
2022-12-22T15:15:52.797Z,11.10
2022-12-22T15:18:28.144Z,13.63
2022-12-22T15:20:59.434Z,8.60
2022-12-22T15:23:29.293Z,8.32
2022-12-22T15:26:01.965Z,6.82
2022-12-22T15:28:31.864Z,7.57
2022-12-22T15:31:02.560Z,7.65
2022-12-22T15:33:33.753Z,6.13
2022-12-22T15:36:03.834Z,8.63
2022-12-22T15:38:38.666Z,6.40
2022-12-22T15:41:11.661Z,5.15
2022-12-22T15:43:58.713Z,5.78
2022-12-22T15:46:29.303Z,4.95
2022-12-22T15:48:59.269Z,9.20
2022-12-22T15:51:33.389Z,17.80
2022-12-22T15:54:04.522Z,12.90
2022-12-22T15:56:39.360Z,13.98
2022-12-22T15:59:09.379Z,11.98
2022-12-22T16:01:39.303Z,7.88
2022-12-22T16:04:10.550Z,7.85
2022-12-22T16:06:40.770Z,12.15
2022-12-22T16:09:16.488Z,10.02
2022-12-22T16:11:49.090Z,7.20
2022-12-22T16:14:21.698Z,6.13
2022-12-22T16:16:51.596Z,5.15
2022-12-22T16:19:22.025Z,6.50
2022-12-22T16:21:55.205Z,3.75
2022-12-22T16:24:30.123Z,6.70
2022-12-22T16:27:03.477Z,7.15
2022-12-22T16:29:33.703Z,3.85
2022-12-22T16:32:19.924Z,7.05
2022-12-22T16:34:49.896Z,7.63
2022-12-22T16:37:19.763Z,8.27
2022-12-22T16:39:49.816Z,6.95
2022-12-22T16:45:08.851Z,5.90
2022-12-22T16:47:39.986Z,6.88
2022-12-22T16:50:21.304Z,6.57
2022-12-22T16:52:52.984Z,8.40
2022-12-22T16:55:24.957Z,8.57
2022-12-22T16:57:57.429Z,9.52
2022-12-22T17:00:30.132Z,7.65
2022-12-22T17:03:04.422Z,7.60
2022-12-22T17:05:44.412Z,7.50
2022-12-22T17:08:24.378Z,7.93
2022-12-22T17:10:55.108Z,8.35
2022-12-22T17:13:28.115Z,8.23
2022-12-22T17:15:58.044Z,8.90
2022-12-22T17:18:29.475Z,9.93
2022-12-22T17:21:01.429Z,9.40
2022-12-22T17:23:35.780Z,9.85
2022-12-22T17:26:10.598Z,8.68
2022-12-22T17:28:44.239Z,10.40
2022-12-22T17:31:19.138Z,9.25
2022-12-22T17:33:49.343Z,13.93
2022-12-22T17:36:35.129Z,17.50
2022-12-22T17:39:06.496Z,11.80
2022-12-22T17:41:36.381Z,17.35
2022-12-22T17:44:08.828Z,15.02
2022-12-22T17:46:38.786Z,11.70
2022-12-22T17:49:08.683Z,12.02
2022-12-22T17:51:39.083Z,20.85
2022-12-22T17:54:14.430Z,16.40
2022-12-22T17:56:44.317Z,20.23
2022-12-22T17:59:16.993Z,17.60
2022-12-22T18:01:47.053Z,21.60
2022-12-22T18:04:17.042Z,19.42
2022-12-22T18:06:47.696Z,18.00
2022-12-22T18:09:24.158Z,15.80
2022-12-22T18:11:54.735Z,18.75
2022-12-22T18:14:27.581Z,22.08
2022-12-22T18:16:57.697Z,19.02
2022-12-22T18:19:27.658Z,17.17
2022-12-22T18:21:57.560Z,18.38
2022-12-22T18:24:27.429Z,14.77
2022-12-22T18:26:57.354Z,13.98
2022-12-22T18:29:29.931Z,12.43
2022-12-22T18:31:59.959Z,15.18
2022-12-22T18:34:29.857Z,20.58
2022-12-22T18:36:59.939Z,17.75
2022-12-22T18:39:29.829Z,25.45
2022-12-22T18:41:59.860Z,22.27
2022-12-22T18:44:32.768Z,17.13
2022-12-22T18:47:02.738Z,23.55
2022-12-22T18:49:32.676Z,24.92
2022-12-22T18:52:02.540Z,21.77
2022-12-22T18:54:36.991Z,15.07
2022-12-22T18:57:08.226Z,14.20
2022-12-22T18:59:40.903Z,13.98
2022-12-22T19:02:24.517Z,14.43
2022-12-22T19:04:55.278Z,16.27
2022-12-22T19:07:27.764Z,15.55
2022-12-22T19:10:00.656Z,14.82
2022-12-22T19:12:31.338Z,15.07
2022-12-22T19:15:09.394Z,15.00
2022-12-22T19:17:39.305Z,15.40
2022-12-22T19:20:18.900Z,13.93
2022-12-22T19:22:49.167Z,13.85
2022-12-22T19:25:21.601Z,13.77
2022-12-22T19:27:54.975Z,12.48
2022-12-22T19:30:28.990Z,13.55
2022-12-22T19:33:03.955Z,13.95
2022-12-22T19:35:35.495Z,13.65
2022-12-22T19:38:05.420Z,12.63
2022-12-22T19:40:36.555Z,14.80
2022-12-22T19:43:06.420Z,15.63
2022-12-22T19:45:39.021Z,17.48
2022-12-22T19:48:20.593Z,16.30
2022-12-22T19:50:51.401Z,60.20
2022-12-22T19:53:22.739Z,20.10
2022-12-22T19:55:55.394Z,21.38
2022-12-22T19:58:28.981Z,22.33
2022-12-22T20:01:01.988Z,16.15
2022-12-22T20:03:31.926Z,15.73
2022-12-22T20:06:01.841Z,12.65
2022-12-22T20:08:31.732Z,13.20
2022-12-22T20:11:02.909Z,16.90
2022-12-22T20:13:35.781Z,19.48
2022-12-22T20:16:09.485Z,14.80
2022-12-22T20:18:39.370Z,15.00
2022-12-22T20:21:13.711Z,12.65
2022-12-22T20:23:44.056Z,11.77
2022-12-22T20:26:20.971Z,12.25
2022-12-22T20:28:51.469Z,12.63
2022-12-22T20:31:26.609Z,12.95
2022-12-22T20:33:56.861Z,12.85
2022-12-22T20:36:31.864Z,14.23
2022-12-22T20:39:03.302Z,13.52
2022-12-22T20:41:33.165Z,13.55
2022-12-22T20:44:03.061Z,13.68
2022-12-22T20:46:35.645Z,14.63
2022-12-22T20:49:07.369Z,13.68
2022-12-22T20:51:37.274Z,14.73
2022-12-22T20:54:07.835Z,16.67
2022-12-22T20:56:41.099Z,17.77
2022-12-22T20:59:17.979Z,14.60
2022-12-22T21:01:51.775Z,14.40
2022-12-22T21:04:22.912Z,15.87
2022-12-22T21:06:55.266Z,15.13
2022-12-22T21:09:26.923Z,16.65
2022-12-22T21:11:56.766Z,14.23
2022-12-22T21:14:26.601Z,15.00
2022-12-22T21:16:59.204Z,15.57
2022-12-22T21:19:29.171Z,14.45
2022-12-22T21:21:59.174Z,16.00
2022-12-22T21:24:29.060Z,15.07
2022-12-22T21:26:59.230Z,14.00
2022-12-22T21:29:30.572Z,14.32
2022-12-22T21:32:03.079Z,14.85
2022-12-22T21:34:32.933Z,12.63
2022-12-22T21:37:05.714Z,14.13
2022-12-22T21:39:42.582Z,12.90
2022-12-22T21:42:17.358Z,12.88
2022-12-22T21:47:22.413Z,14.98
2022-12-22T21:49:52.329Z,13.90
2022-12-22T21:52:22.205Z,14.18
2022-12-22T21:54:52.061Z,14.57
2022-12-22T21:57:21.927Z,15.60
2022-12-22T21:59:51.810Z,15.20
2022-12-22T22:02:24.410Z,14.00
2022-12-22T22:04:55.396Z,13.70
2022-12-22T22:07:25.734Z,15.50
2022-12-22T22:09:55.954Z,13.60
2022-12-22T22:12:39.911Z,14.70
2022-12-22T22:15:12.373Z,15.10
2022-12-22T22:17:46.199Z,14.10
2022-12-22T22:20:19.872Z,13.75
2022-12-22T22:22:51.413Z,14.75
2022-12-22T22:25:22.550Z,13.43
2022-12-22T22:27:52.856Z,15.00
2022-12-22T22:30:25.371Z,15.65
2022-12-22T22:32:59.181Z,15.43
2022-12-22T22:35:30.165Z,15.55
2022-12-22T22:38:00.119Z,15.50
2022-12-22T22:40:29.978Z,14.35
2022-12-22T22:42:59.891Z,14.98
2022-12-22T22:45:29.754Z,13.85
2022-12-22T22:48:07.730Z,15.27
2022-12-22T22:50:43.355Z,13.57
2022-12-22T22:53:13.274Z,14.82
2022-12-22T22:55:43.291Z,14.52
2022-12-22T22:58:13.382Z,14.68
2022-12-22T23:00:43.294Z,15.68
2022-12-22T23:03:16.694Z,15.90
2022-12-22T23:05:46.846Z,15.70
2022-12-22T23:08:16.771Z,14.90
2022-12-22T23:10:51.484Z,13.30
2022-12-22T23:15:57.734Z,12.75
2022-12-22T23:18:31.312Z,13.82
2022-12-22T23:21:01.684Z,13.65
2022-12-22T23:23:32.320Z,12.05
2022-12-22T23:26:03.222Z,12.20
2022-12-22T23:28:33.430Z,12.57
2022-12-22T23:31:03.377Z,11.50
2022-12-22T23:33:36.444Z,12.57
2022-12-22T23:36:07.348Z,12.32
2022-12-22T23:38:37.600Z,11.55
2022-12-22T23:41:10.576Z,12.57
2022-12-22T23:43:40.891Z,12.50
2022-12-22T23:46:12.768Z,14.38
2022-12-22T23:48:45.826Z,12.02
2022-12-22T23:51:15.679Z,12.05
2022-12-22T23:53:45.530Z,12.63
2022-12-22T23:56:15.433Z,11.05
2022-12-22T23:58:51.043Z,10.90
